sensor_id;sensor_type;location;lat;lon;timestamp;P1;durP1;ratioP1;P2;durP2;ratioP2
6113;SDS011;3087;48.392;10.836;2023-02-01T00:01:43;7.40;;;5.83;;
6113;SDS011;3087;48.392;10.836;2023-02-01T00:04:08;9.03;;;6.03;;
6113;SDS011;3087;48.392;10.836;2023-02-01T00:06:34;7.53;;;6.13;;
6113;SDS011;3087;48.392;10.836;2023-02-01T00:09:00;7.47;;;6.60;;
6113;SDS011;3087;48.392;10.836;2023-02-01T00:11:26;11.60;;;6.57;;
6113;SDS011;3087;48.392;10.836;2023-02-01T00:13:52;7.43;;;5.90;;
6113;SDS011;3087;48.392;10.836;2023-02-01T00:16:19;8.07;;;5.80;;
6113;SDS011;3087;48.392;10.836;2023-02-01T00:18:46;8.13;;;5.60;;
6113;SDS011;3087;48.392;10.836;2023-02-01T00:21:14;8.97;;;6.00;;
6113;SDS011;3087;48.392;10.836;2023-02-01T00:23:41;6.70;;;5.50;;
6113;SDS011;3087;48.392;10.836;2023-02-01T00:26:07;6.73;;;5.43;;
6113;SDS011;3087;48.392;10.836;2023-02-01T00:28:38;6.30;;;5.50;;
6113;SDS011;3087;48.392;10.836;2023-02-01T00:31:04;8.63;;;6.20;;
6113;SDS011;3087;48.392;10.836;2023-02-01T00:33:30;7.93;;;6.57;;
6113;SDS011;3087;48.392;10.836;2023-02-01T00:35:57;9.37;;;6.57;;
6113;SDS011;3087;48.392;10.836;2023-02-01T00:38:24;8.00;;;6.00;;
6113;SDS011;3087;48.392;10.836;2023-02-01T00:40:50;8.87;;;5.80;;
6113;SDS011;3087;48.392;10.836;2023-02-01T00:43:16;8.03;;;6.13;;
6113;SDS011;3087;48.392;10.836;2023-02-01T00:45:42;9.10;;;6.20;;
6113;SDS011;3087;48.392;10.836;2023-02-01T00:48:07;9.00;;;6.23;;
6113;SDS011;3087;48.392;10.836;2023-02-01T00:50:33;8.27;;;6.63;;
6113;SDS011;3087;48.392;10.836;2023-02-01T00:52:58;9.60;;;6.20;;
6113;SDS011;3087;48.392;10.836;2023-02-01T00:55:25;8.97;;;6.27;;
6113;SDS011;3087;48.392;10.836;2023-02-01T00:57:51;7.87;;;6.23;;
6113;SDS011;3087;48.392;10.836;2023-02-01T01:00:17;9.77;;;6.60;;
6113;SDS011;3087;48.392;10.836;2023-02-01T01:02:43;8.07;;;6.13;;
6113;SDS011;3087;48.392;10.836;2023-02-01T01:05:09;9.27;;;6.97;;
6113;SDS011;3087;48.392;10.836;2023-02-01T01:07:34;7.93;;;6.60;;
6113;SDS011;3087;48.392;10.836;2023-02-01T01:10:00;8.37;;;6.53;;
6113;SDS011;3087;48.392;10.836;2023-02-01T01:12:25;8.50;;;6.30;;
6113;SDS011;3087;48.392;10.836;2023-02-01T01:14:51;7.97;;;6.17;;
6113;SDS011;3087;48.392;10.836;2023-02-01T01:17:16;7.97;;;6.27;;
6113;SDS011;3087;48.392;10.836;2023-02-01T01:19:42;7.83;;;6.20;;
6113;SDS011;3087;48.392;10.836;2023-02-01T01:22:08;9.10;;;6.07;;
6113;SDS011;3087;48.392;10.836;2023-02-01T01:24:33;8.30;;;6.30;;
6113;SDS011;3087;48.392;10.836;2023-02-01T01:26:59;9.13;;;6.43;;
6113;SDS011;3087;48.392;10.836;2023-02-01T01:29:25;7.53;;;6.13;;
6113;SDS011;3087;48.392;10.836;2023-02-01T01:31:50;7.57;;;5.40;;
6113;SDS011;3087;48.392;10.836;2023-02-01T01:34:16;9.77;;;5.90;;
6113;SDS011;3087;48.392;10.836;2023-02-01T01:36:41;7.57;;;5.83;;
6113;SDS011;3087;48.392;10.836;2023-02-01T01:39:07;7.47;;;5.93;;
6113;SDS011;3087;48.392;10.836;2023-02-01T01:41:33;8.10;;;6.07;;
6113;SDS011;3087;48.392;10.836;2023-02-01T01:44:05;8.30;;;6.37;;
6113;SDS011;3087;48.392;10.836;2023-02-01T01:46:35;10.03;;;6.07;;
6113;SDS011;3087;48.392;10.836;2023-02-01T01:49:09;8.53;;;6.07;;
6113;SDS011;3087;48.392;10.836;2023-02-01T01:51:47;6.93;;;5.93;;
6113;SDS011;3087;48.392;10.836;2023-02-01T01:54:18;7.17;;;6.10;;
6113;SDS011;3087;48.392;10.836;2023-02-01T01:56:50;7.63;;;6.17;;
6113;SDS011;3087;48.392;10.836;2023-02-01T01:59:19;8.07;;;6.17;;
6113;SDS011;3087;48.392;10.836;2023-02-01T02:01:46;6.93;;;5.80;;
6113;SDS011;3087;48.392;10.836;2023-02-01T02:04:12;10.03;;;6.83;;
6113;SDS011;3087;48.392;10.836;2023-02-01T02:07:00;8.40;;;6.83;;
6113;SDS011;3087;48.392;10.836;2023-02-01T02:09:32;6.97;;;5.83;;
6113;SDS011;3087;48.392;10.836;2023-02-01T02:11:59;6.97;;;6.23;;
6113;SDS011;3087;48.392;10.836;2023-02-01T02:14:24;7.10;;;5.70;;
6113;SDS011;3087;48.392;10.836;2023-02-01T02:36:16;9.87;;;7.00;;
6113;SDS011;3087;48.392;10.836;2023-02-01T02:39:08;9.33;;;6.30;;
6113;SDS011;3087;48.392;10.836;2023-02-01T02:47:52;10.07;;;7.67;;
6113;SDS011;3087;48.392;10.836;2023-02-01T02:56:21;12.97;;;11.33;;
6113;SDS011;3087;48.392;10.836;2023-02-01T02:59:09;7.63;;;6.47;;
6113;SDS011;3087;48.392;10.836;2023-02-01T03:01:57;11.00;;;7.33;;
6113;SDS011;3087;48.392;10.836;2023-02-01T03:04:42;12.10;;;6.83;;
6113;SDS011;3087;48.392;10.836;2023-02-01T03:07:12;10.03;;;6.50;;
6113;SDS011;3087;48.392;10.836;2023-02-01T03:09:40;8.90;;;6.77;;
6113;SDS011;3087;48.392;10.836;2023-02-01T03:12:11;8.50;;;6.37;;
6113;SDS011;3087;48.392;10.836;2023-02-01T03:14:58;7.60;;;6.13;;
6113;SDS011;3087;48.392;10.836;2023-02-01T03:17:31;7.93;;;7.13;;
6113;SDS011;3087;48.392;10.836;2023-02-01T03:20:03;9.37;;;7.43;;
6113;SDS011;3087;48.392;10.836;2023-02-01T03:22:31;7.23;;;6.30;;
6113;SDS011;3087;48.392;10.836;2023-02-01T03:25:21;7.30;;;6.50;;
6113;SDS011;3087;48.392;10.836;2023-02-01T03:27:52;9.03;;;6.60;;
6113;SDS011;3087;48.392;10.836;2023-02-01T03:30:22;9.87;;;6.13;;
6113;SDS011;3087;48.392;10.836;2023-02-01T03:32:51;8.50;;;5.83;;
6113;SDS011;3087;48.392;10.836;2023-02-01T03:38:16;7.37;;;6.57;;
6113;SDS011;3087;48.392;10.836;2023-02-01T03:40:45;5.90;;;5.30;;
6113;SDS011;3087;48.392;10.836;2023-02-01T03:43:14;7.53;;;6.17;;
6113;SDS011;3087;48.392;10.836;2023-02-01T03:45:44;8.03;;;5.87;;
6113;SDS011;3087;48.392;10.836;2023-02-01T03:48:13;8.67;;;6.13;;
6113;SDS011;3087;48.392;10.836;2023-02-01T03:50:43;8.93;;;6.83;;
6113;SDS011;3087;48.392;10.836;2023-02-01T03:53:17;7.77;;;5.87;;
6113;SDS011;3087;48.392;10.836;2023-02-01T03:55:45;8.47;;;6.03;;
6113;SDS011;3087;48.392;10.836;2023-02-01T03:58:19;9.70;;;5.73;;
6113;SDS011;3087;48.392;10.836;2023-02-01T04:00:56;6.77;;;5.67;;
6113;SDS011;3087;48.392;10.836;2023-02-01T04:03:24;7.80;;;6.17;;
6113;SDS011;3087;48.392;10.836;2023-02-01T04:05:51;7.10;;;5.83;;
6113;SDS011;3087;48.392;10.836;2023-02-01T04:08:17;7.40;;;5.67;;
6113;SDS011;3087;48.392;10.836;2023-02-01T04:10:47;7.33;;;5.23;;
6113;SDS011;3087;48.392;10.836;2023-02-01T04:13:13;6.57;;;5.63;;
6113;SDS011;3087;48.392;10.836;2023-02-01T04:15:39;7.03;;;6.00;;
6113;SDS011;3087;48.392;10.836;2023-02-01T04:18:05;8.60;;;5.80;;
6113;SDS011;3087;48.392;10.836;2023-02-01T04:20:30;7.63;;;5.33;;
6113;SDS011;3087;48.392;10.836;2023-02-01T04:22:56;7.23;;;5.57;;
6113;SDS011;3087;48.392;10.836;2023-02-01T04:25:22;7.57;;;5.30;;
6113;SDS011;3087;48.392;10.836;2023-02-01T04:27:48;7.43;;;6.00;;
6113;SDS011;3087;48.392;10.836;2023-02-01T04:30:14;7.03;;;5.33;;
6113;SDS011;3087;48.392;10.836;2023-02-01T04:32:40;6.77;;;5.70;;
6113;SDS011;3087;48.392;10.836;2023-02-01T04:35:06;6.37;;;5.40;;
6113;SDS011;3087;48.392;10.836;2023-02-01T04:37:32;7.73;;;6.07;;
6113;SDS011;3087;48.392;10.836;2023-02-01T04:39:58;7.00;;;5.20;;
6113;SDS011;3087;48.392;10.836;2023-02-01T04:42:24;5.83;;;4.57;;
6113;SDS011;3087;48.392;10.836;2023-02-01T04:44:50;7.00;;;5.33;;
6113;SDS011;3087;48.392;10.836;2023-02-01T04:47:15;6.93;;;5.70;;
6113;SDS011;3087;48.392;10.836;2023-02-01T04:49:41;6.23;;;5.23;;
6113;SDS011;3087;48.392;10.836;2023-02-01T04:52:07;6.40;;;5.47;;
6113;SDS011;3087;48.392;10.836;2023-02-01T04:54:33;5.93;;;5.20;;
6113;SDS011;3087;48.392;10.836;2023-02-01T04:56:59;7.60;;;5.50;;
6113;SDS011;3087;48.392;10.836;2023-02-01T04:59:24;6.27;;;5.43;;
6113;SDS011;3087;48.392;10.836;2023-02-01T05:01:50;6.03;;;5.40;;
6113;SDS011;3087;48.392;10.836;2023-02-01T05:04:16;5.80;;;4.87;;
6113;SDS011;3087;48.392;10.836;2023-02-01T05:06:43;5.60;;;5.00;;
6113;SDS011;3087;48.392;10.836;2023-02-01T05:09:09;5.83;;;4.97;;
6113;SDS011;3087;48.392;10.836;2023-02-01T05:11:35;6.50;;;5.57;;
6113;SDS011;3087;48.392;10.836;2023-02-01T05:14:20;7.43;;;5.07;;
6113;SDS011;3087;48.392;10.836;2023-02-01T05:16:45;6.20;;;4.73;;
6113;SDS011;3087;48.392;10.836;2023-02-01T05:19:11;6.13;;;5.53;;
6113;SDS011;3087;48.392;10.836;2023-02-01T05:21:37;6.67;;;5.27;;
6113;SDS011;3087;48.392;10.836;2023-02-01T05:24:03;7.27;;;6.03;;
6113;SDS011;3087;48.392;10.836;2023-02-01T05:26:35;7.90;;;5.50;;
6113;SDS011;3087;48.392;10.836;2023-02-01T05:29:02;8.63;;;5.47;;
6113;SDS011;3087;48.392;10.836;2023-02-01T05:31:28;7.57;;;5.70;;
6113;SDS011;3087;48.392;10.836;2023-02-01T05:33:54;8.07;;;5.53;;
6113;SDS011;3087;48.392;10.836;2023-02-01T05:36:19;6.17;;;5.37;;
6113;SDS011;3087;48.392;10.836;2023-02-01T05:38:45;6.37;;;5.10;;
6113;SDS011;3087;48.392;10.836;2023-02-01T05:41:11;8.30;;;6.57;;
6113;SDS011;3087;48.392;10.836;2023-02-01T05:43:37;6.03;;;5.30;;
6113;SDS011;3087;48.392;10.836;2023-02-01T05:46:02;6.57;;;5.77;;
6113;SDS011;3087;48.392;10.836;2023-02-01T05:48:29;8.67;;;5.53;;
6113;SDS011;3087;48.392;10.836;2023-02-01T05:50:55;6.40;;;5.20;;
6113;SDS011;3087;48.392;10.836;2023-02-01T05:53:20;5.90;;;5.20;;
6113;SDS011;3087;48.392;10.836;2023-02-01T05:55:46;6.30;;;5.03;;
6113;SDS011;3087;48.392;10.836;2023-02-01T05:58:12;6.00;;;5.10;;
6113;SDS011;3087;48.392;10.836;2023-02-01T06:00:38;6.00;;;5.30;;
6113;SDS011;3087;48.392;10.836;2023-02-01T06:03:04;7.67;;;6.87;;
6113;SDS011;3087;48.392;10.836;2023-02-01T06:05:30;7.40;;;5.67;;
6113;SDS011;3087;48.392;10.836;2023-02-01T06:07:56;6.00;;;5.33;;
6113;SDS011;3087;48.392;10.836;2023-02-01T06:10:22;7.37;;;5.37;;
6113;SDS011;3087;48.392;10.836;2023-02-01T06:12:47;7.73;;;4.63;;
6113;SDS011;3087;48.392;10.836;2023-02-01T06:15:13;7.40;;;5.27;;
6113;SDS011;3087;48.392;10.836;2023-02-01T06:17:43;7.07;;;6.03;;
6113;SDS011;3087;48.392;10.836;2023-02-01T06:20:10;5.40;;;4.87;;
6113;SDS011;3087;48.392;10.836;2023-02-01T06:22:37;7.87;;;5.53;;
6113;SDS011;3087;48.392;10.836;2023-02-01T06:25:04;6.83;;;5.23;;
6113;SDS011;3087;48.392;10.836;2023-02-01T06:27:31;6.83;;;5.77;;
6113;SDS011;3087;48.392;10.836;2023-02-01T06:29:57;6.57;;;5.77;;
6113;SDS011;3087;48.392;10.836;2023-02-01T06:32:22;5.63;;;4.93;;
6113;SDS011;3087;48.392;10.836;2023-02-01T06:34:48;5.10;;;4.60;;
6113;SDS011;3087;48.392;10.836;2023-02-01T06:37:14;6.37;;;5.53;;
6113;SDS011;3087;48.392;10.836;2023-02-01T06:39:40;6.17;;;5.10;;
6113;SDS011;3087;48.392;10.836;2023-02-01T06:42:05;5.93;;;5.23;;
6113;SDS011;3087;48.392;10.836;2023-02-01T06:44:31;6.27;;;5.47;;
6113;SDS011;3087;48.392;10.836;2023-02-01T06:46:57;6.33;;;5.07;;
6113;SDS011;3087;48.392;10.836;2023-02-01T06:49:22;4.87;;;4.37;;
6113;SDS011;3087;48.392;10.836;2023-02-01T06:51:48;7.20;;;5.27;;
6113;SDS011;3087;48.392;10.836;2023-02-01T06:54:14;8.70;;;5.87;;
6113;SDS011;3087;48.392;10.836;2023-02-01T06:56:39;7.37;;;5.07;;
6113;SDS011;3087;48.392;10.836;2023-02-01T06:59:06;6.03;;;5.43;;
6113;SDS011;3087;48.392;10.836;2023-02-01T07:01:34;5.53;;;4.83;;
6113;SDS011;3087;48.392;10.836;2023-02-01T07:03:59;8.00;;;5.50;;
6113;SDS011;3087;48.392;10.836;2023-02-01T07:06:25;6.17;;;4.90;;
6113;SDS011;3087;48.392;10.836;2023-02-01T07:08:51;6.70;;;5.13;;
6113;SDS011;3087;48.392;10.836;2023-02-01T07:11:17;7.97;;;5.93;;
6113;SDS011;3087;48.392;10.836;2023-02-01T07:13:43;5.63;;;5.03;;
6113;SDS011;3087;48.392;10.836;2023-02-01T07:16:11;6.77;;;5.10;;
6113;SDS011;3087;48.392;10.836;2023-02-01T07:18:38;7.50;;;5.23;;
6113;SDS011;3087;48.392;10.836;2023-02-01T07:21:04;8.73;;;7.10;;
6113;SDS011;3087;48.392;10.836;2023-02-01T07:23:30;8.77;;;6.03;;
6113;SDS011;3087;48.392;10.836;2023-02-01T07:25:56;8.33;;;6.57;;
6113;SDS011;3087;48.392;10.836;2023-02-01T07:28:23;8.20;;;5.73;;
6113;SDS011;3087;48.392;10.836;2023-02-01T07:30:50;9.97;;;6.03;;
6113;SDS011;3087;48.392;10.836;2023-02-01T07:33:22;7.40;;;6.17;;
6113;SDS011;3087;48.392;10.836;2023-02-01T07:35:50;6.53;;;5.20;;
6113;SDS011;3087;48.392;10.836;2023-02-01T07:38:16;6.87;;;5.73;;
6113;SDS011;3087;48.392;10.836;2023-02-01T07:40:43;6.70;;;5.13;;
6113;SDS011;3087;48.392;10.836;2023-02-01T07:43:09;6.07;;;5.13;;
6113;SDS011;3087;48.392;10.836;2023-02-01T07:45:35;5.87;;;5.27;;
6113;SDS011;3087;48.392;10.836;2023-02-01T07:48:01;6.37;;;5.13;;
6113;SDS011;3087;48.392;10.836;2023-02-01T07:50:27;7.17;;;5.57;;
6113;SDS011;3087;48.392;10.836;2023-02-01T07:52:54;6.10;;;4.50;;
6113;SDS011;3087;48.392;10.836;2023-02-01T07:55:20;5.93;;;5.20;;
6113;SDS011;3087;48.392;10.836;2023-02-01T07:57:45;6.00;;;4.77;;
6113;SDS011;3087;48.392;10.836;2023-02-01T08:00:11;6.77;;;5.53;;
6113;SDS011;3087;48.392;10.836;2023-02-01T08:02:59;7.03;;;5.10;;
6113;SDS011;3087;48.392;10.836;2023-02-01T08:05:25;6.83;;;4.80;;
6113;SDS011;3087;48.392;10.836;2023-02-01T08:07:51;6.63;;;4.30;;
6113;SDS011;3087;48.392;10.836;2023-02-01T08:10:17;5.53;;;4.87;;
6113;SDS011;3087;48.392;10.836;2023-02-01T08:12:43;6.23;;;4.67;;
6113;SDS011;3087;48.392;10.836;2023-02-01T08:15:12;6.07;;;5.23;;
6113;SDS011;3087;48.392;10.836;2023-02-01T08:17:39;10.33;;;7.37;;
6113;SDS011;3087;48.392;10.836;2023-02-01T08:20:05;6.77;;;4.43;;
6113;SDS011;3087;48.392;10.836;2023-02-01T08:22:32;11.77;;;6.00;;
6113;SDS011;3087;48.392;10.836;2023-02-01T08:24:57;9.20;;;7.53;;
6113;SDS011;3087;48.392;10.836;2023-02-01T08:27:26;7.83;;;5.50;;
6113;SDS011;3087;48.392;10.836;2023-02-01T08:29:52;6.97;;;4.77;;
6113;SDS011;3087;48.392;10.836;2023-02-01T08:32:19;8.53;;;5.40;;
6113;SDS011;3087;48.392;10.836;2023-02-01T08:34:44;6.93;;;5.30;;
6113;SDS011;3087;48.392;10.836;2023-02-01T08:37:10;7.37;;;4.90;;
6113;SDS011;3087;48.392;10.836;2023-02-01T08:39:35;6.33;;;5.00;;
6113;SDS011;3087;48.392;10.836;2023-02-01T08:42:01;8.67;;;6.60;;
6113;SDS011;3087;48.392;10.836;2023-02-01T08:44:45;14.70;;;8.33;;
6113;SDS011;3087;48.392;10.836;2023-02-01T08:47:12;7.43;;;5.33;;
6113;SDS011;3087;48.392;10.836;2023-02-01T08:49:37;7.13;;;5.27;;
6113;SDS011;3087;48.392;10.836;2023-02-01T08:52:03;6.70;;;4.90;;
6113;SDS011;3087;48.392;10.836;2023-02-01T08:54:28;5.83;;;5.13;;
6113;SDS011;3087;48.392;10.836;2023-02-01T08:56:55;7.03;;;5.10;;
6113;SDS011;3087;48.392;10.836;2023-02-01T08:59:21;5.70;;;4.73;;
6113;SDS011;3087;48.392;10.836;2023-02-01T09:01:46;5.47;;;4.70;;
6113;SDS011;3087;48.392;10.836;2023-02-01T09:04:12;6.47;;;4.97;;
6113;SDS011;3087;48.392;10.836;2023-02-01T09:06:40;6.17;;;4.63;;
6113;SDS011;3087;48.392;10.836;2023-02-01T09:09:06;6.27;;;4.60;;
6113;SDS011;3087;48.392;10.836;2023-02-01T09:11:31;6.13;;;5.20;;
6113;SDS011;3087;48.392;10.836;2023-02-01T09:13:57;6.63;;;4.70;;
6113;SDS011;3087;48.392;10.836;2023-02-01T09:16:23;5.43;;;4.07;;
6113;SDS011;3087;48.392;10.836;2023-02-01T09:18:48;6.00;;;4.50;;
6113;SDS011;3087;48.392;10.836;2023-02-01T09:21:14;5.63;;;4.97;;
6113;SDS011;3087;48.392;10.836;2023-02-01T09:23:39;5.37;;;4.87;;
6113;SDS011;3087;48.392;10.836;2023-02-01T09:26:05;5.87;;;4.67;;
6113;SDS011;3087;48.392;10.836;2023-02-01T09:28:31;6.70;;;5.30;;
6113;SDS011;3087;48.392;10.836;2023-02-01T09:30:57;6.60;;;5.20;;
6113;SDS011;3087;48.392;10.836;2023-02-01T09:33:25;5.43;;;4.93;;
6113;SDS011;3087;48.392;10.836;2023-02-01T09:35:58;4.90;;;4.40;;
6113;SDS011;3087;48.392;10.836;2023-02-01T09:38:25;5.07;;;4.57;;
6113;SDS011;3087;48.392;10.836;2023-02-01T09:40:52;7.57;;;5.10;;
6113;SDS011;3087;48.392;10.836;2023-02-01T09:48:22;5.03;;;4.53;;
6113;SDS011;3087;48.392;10.836;2023-02-01T09:50:54;7.70;;;4.97;;
6113;SDS011;3087;48.392;10.836;2023-02-01T09:53:27;6.27;;;4.63;;
6113;SDS011;3087;48.392;10.836;2023-02-01T09:56:02;6.13;;;4.73;;
6113;SDS011;3087;48.392;10.836;2023-02-01T10:01:17;4.73;;;4.17;;
6113;SDS011;3087;48.392;10.836;2023-02-01T10:03:47;5.80;;;4.80;;
6113;SDS011;3087;48.392;10.836;2023-02-01T10:09:04;5.73;;;4.97;;
6113;SDS011;3087;48.392;10.836;2023-02-01T10:11:47;5.60;;;5.00;;
6113;SDS011;3087;48.392;10.836;2023-02-01T10:22:59;5.20;;;3.73;;
6113;SDS011;3087;48.392;10.836;2023-02-01T10:28:48;4.43;;;4.03;;
6113;SDS011;3087;48.392;10.836;2023-02-01T10:31:17;5.97;;;4.77;;
6113;SDS011;3087;48.392;10.836;2023-02-01T10:39:01;6.27;;;4.50;;
6113;SDS011;3087;48.392;10.836;2023-02-01T10:41:38;5.57;;;4.47;;
6113;SDS011;3087;48.392;10.836;2023-02-01T10:44:23;6.00;;;4.67;;
6113;SDS011;3087;48.392;10.836;2023-02-01T10:46:52;5.33;;;4.50;;
6113;SDS011;3087;48.392;10.836;2023-02-01T10:49:22;7.97;;;4.70;;
6113;SDS011;3087;48.392;10.836;2023-02-01T10:52:05;6.63;;;4.27;;
6113;SDS011;3087;48.392;10.836;2023-02-01T10:54:39;5.73;;;4.70;;
6113;SDS011;3087;48.392;10.836;2023-02-01T10:57:24;9.87;;;4.63;;
6113;SDS011;3087;48.392;10.836;2023-02-01T10:59:53;5.60;;;5.00;;
6113;SDS011;3087;48.392;10.836;2023-02-01T11:02:26;6.50;;;4.80;;
6113;SDS011;3087;48.392;10.836;2023-02-01T11:05:05;7.07;;;4.47;;
6113;SDS011;3087;48.392;10.836;2023-02-01T11:07:34;7.53;;;5.50;;
6113;SDS011;3087;48.392;10.836;2023-02-01T11:10:01;6.07;;;4.67;;
6113;SDS011;3087;48.392;10.836;2023-02-01T11:12:29;5.37;;;4.30;;
6113;SDS011;3087;48.392;10.836;2023-02-01T11:17:44;7.77;;;4.93;;
6113;SDS011;3087;48.392;10.836;2023-02-01T11:20:16;7.97;;;4.93;;
6113;SDS011;3087;48.392;10.836;2023-02-01T11:22:55;11.87;;;4.83;;
6113;SDS011;3087;48.392;10.836;2023-02-01T11:25:22;6.47;;;5.23;;
6113;SDS011;3087;48.392;10.836;2023-02-01T11:27:49;7.37;;;5.30;;
6113;SDS011;3087;48.392;10.836;2023-02-01T11:30:19;7.23;;;4.27;;
6113;SDS011;3087;48.392;10.836;2023-02-01T11:32:50;5.13;;;4.33;;
6113;SDS011;3087;48.392;10.836;2023-02-01T11:35:18;6.73;;;5.27;;
6113;SDS011;3087;48.392;10.836;2023-02-01T11:37:45;7.83;;;4.90;;
6113;SDS011;3087;48.392;10.836;2023-02-01T11:43:07;7.07;;;4.77;;
6113;SDS011;3087;48.392;10.836;2023-02-01T11:45:31;5.60;;;4.43;;
6113;SDS011;3087;48.392;10.836;2023-02-01T11:48:09;7.23;;;4.90;;
6113;SDS011;3087;48.392;10.836;2023-02-01T11:50:38;8.17;;;4.70;;
6113;SDS011;3087;48.392;10.836;2023-02-01T11:55:55;6.63;;;5.17;;
6113;SDS011;3087;48.392;10.836;2023-02-01T12:01:11;7.37;;;5.40;;
6113;SDS011;3087;48.392;10.836;2023-02-01T12:03:56;6.80;;;5.00;;
6113;SDS011;3087;48.392;10.836;2023-02-01T12:06:48;6.83;;;4.50;;
6113;SDS011;3087;48.392;10.836;2023-02-01T12:33:50;9.90;;;4.57;;
6113;SDS011;3087;48.392;10.836;2023-02-01T12:39:10;8.23;;;4.10;;
6113;SDS011;3087;48.392;10.836;2023-02-01T12:41:48;6.10;;;4.20;;
6113;SDS011;3087;48.392;10.836;2023-02-01T12:44:32;8.53;;;4.40;;
6113;SDS011;3087;48.392;10.836;2023-02-01T12:47:17;6.83;;;3.97;;
6113;SDS011;3087;48.392;10.836;2023-02-01T12:49:54;7.13;;;4.33;;
6113;SDS011;3087;48.392;10.836;2023-02-01T12:52:44;8.33;;;4.30;;
6113;SDS011;3087;48.392;10.836;2023-02-01T12:55:27;5.07;;;3.77;;
6113;SDS011;3087;48.392;10.836;2023-02-01T12:58:17;9.30;;;4.00;;
6113;SDS011;3087;48.392;10.836;2023-02-01T13:00:44;5.53;;;4.63;;
6113;SDS011;3087;48.392;10.836;2023-02-01T13:06:19;5.87;;;4.83;;
6113;SDS011;3087;48.392;10.836;2023-02-01T13:08:51;8.20;;;5.00;;
6113;SDS011;3087;48.392;10.836;2023-02-01T13:11:30;6.93;;;4.37;;
6113;SDS011;3087;48.392;10.836;2023-02-01T13:17:10;8.83;;;5.33;;
6113;SDS011;3087;48.392;10.836;2023-02-01T13:22:39;7.07;;;4.53;;
6113;SDS011;3087;48.392;10.836;2023-02-01T13:25:17;6.57;;;4.70;;
6113;SDS011;3087;48.392;10.836;2023-02-01T13:28:00;6.07;;;4.10;;
6113;SDS011;3087;48.392;10.836;2023-02-01T13:30:38;9.47;;;4.87;;
6113;SDS011;3087;48.392;10.836;2023-02-01T13:41:55;7.63;;;4.30;;
6113;SDS011;3087;48.392;10.836;2023-02-01T13:47:11;7.43;;;4.37;;
6113;SDS011;3087;48.392;10.836;2023-02-01T13:49:49;6.27;;;4.23;;
6113;SDS011;3087;48.392;10.836;2023-02-01T13:52:50;7.97;;;4.27;;
6113;SDS011;3087;48.392;10.836;2023-02-01T13:57:38;6.63;;;5.13;;
6113;SDS011;3087;48.392;10.836;2023-02-01T14:23:48;5.83;;;4.17;;
6113;SDS011;3087;48.392;10.836;2023-02-01T14:26:44;9.70;;;4.90;;
6113;SDS011;3087;48.392;10.836;2023-02-01T14:34:34;4.90;;;4.30;;
6113;SDS011;3087;48.392;10.836;2023-02-01T14:44:42;9.07;;;4.73;;
6113;SDS011;3087;48.392;10.836;2023-02-01T14:49:54;7.77;;;3.63;;
6113;SDS011;3087;48.392;10.836;2023-02-01T14:52:32;7.40;;;4.53;;
6113;SDS011;3087;48.392;10.836;2023-02-01T14:55:02;6.60;;;3.77;;
6113;SDS011;3087;48.392;10.836;2023-02-01T14:57:31;8.10;;;5.03;;
6113;SDS011;3087;48.392;10.836;2023-02-01T15:03:21;7.33;;;4.07;;
6113;SDS011;3087;48.392;10.836;2023-02-01T15:06:23;6.07;;;3.77;;
6113;SDS011;3087;48.392;10.836;2023-02-01T15:08:52;8.63;;;3.60;;
6113;SDS011;3087;48.392;10.836;2023-02-01T15:11:22;8.40;;;4.03;;
6113;SDS011;3087;48.392;10.836;2023-02-01T15:13:49;10.37;;;4.07;;
6113;SDS011;3087;48.392;10.836;2023-02-01T15:16:16;8.83;;;4.07;;
6113;SDS011;3087;48.392;10.836;2023-02-01T15:18:42;6.40;;;3.97;;
6113;SDS011;3087;48.392;10.836;2023-02-01T15:21:21;7.33;;;3.87;;
6113;SDS011;3087;48.392;10.836;2023-02-01T15:23:48;7.37;;;3.80;;
6113;SDS011;3087;48.392;10.836;2023-02-01T15:26:28;10.10;;;3.83;;
6113;SDS011;3087;48.392;10.836;2023-02-01T15:28:58;7.90;;;3.87;;
6113;SDS011;3087;48.392;10.836;2023-02-01T15:31:31;7.77;;;3.60;;
6113;SDS011;3087;48.392;10.836;2023-02-01T15:34:11;9.20;;;4.13;;
6113;SDS011;3087;48.392;10.836;2023-02-01T15:36:37;7.93;;;3.33;;
6113;SDS011;3087;48.392;10.836;2023-02-01T15:41:52;6.37;;;3.57;;
6113;SDS011;3087;48.392;10.836;2023-02-01T15:44:21;8.67;;;3.63;;
6113;SDS011;3087;48.392;10.836;2023-02-01T15:46:55;6.23;;;3.53;;
6113;SDS011;3087;48.392;10.836;2023-02-01T15:51:58;6.13;;;3.63;;
6113;SDS011;3087;48.392;10.836;2023-02-01T15:56:53;6.80;;;3.43;;
6113;SDS011;3087;48.392;10.836;2023-02-01T15:59:31;9.87;;;4.10;;
6113;SDS011;3087;48.392;10.836;2023-02-01T16:02:02;10.27;;;4.17;;
6113;SDS011;3087;48.392;10.836;2023-02-01T16:04:28;7.90;;;3.93;;
6113;SDS011;3087;48.392;10.836;2023-02-01T16:07:01;10.20;;;3.70;;
6113;SDS011;3087;48.392;10.836;2023-02-01T16:10:27;8.50;;;4.03;;
6113;SDS011;3087;48.392;10.836;2023-02-01T16:15:03;7.47;;;3.30;;
6113;SDS011;3087;48.392;10.836;2023-02-01T16:17:29;7.53;;;3.03;;
6113;SDS011;3087;48.392;10.836;2023-02-01T16:19:55;7.40;;;2.90;;
6113;SDS011;3087;48.392;10.836;2023-02-01T16:22:22;9.30;;;4.23;;
6113;SDS011;3087;48.392;10.836;2023-02-01T16:24:47;9.47;;;3.93;;
6113;SDS011;3087;48.392;10.836;2023-02-01T16:27:13;7.27;;;4.03;;
6113;SDS011;3087;48.392;10.836;2023-02-01T16:29:39;8.90;;;4.00;;
6113;SDS011;3087;48.392;10.836;2023-02-01T16:32:04;10.93;;;4.03;;
6113;SDS011;3087;48.392;10.836;2023-02-01T16:34:30;6.10;;;3.47;;
6113;SDS011;3087;48.392;10.836;2023-02-01T16:36:56;7.97;;;3.70;;
6113;SDS011;3087;48.392;10.836;2023-02-01T16:39:22;5.90;;;3.10;;
6113;SDS011;3087;48.392;10.836;2023-02-01T16:41:49;6.20;;;3.17;;
6113;SDS011;3087;48.392;10.836;2023-02-01T16:44:15;6.50;;;3.13;;
6113;SDS011;3087;48.392;10.836;2023-02-01T16:46:44;6.83;;;3.97;;
6113;SDS011;3087;48.392;10.836;2023-02-01T16:49:19;7.90;;;3.20;;
6113;SDS011;3087;48.392;10.836;2023-02-01T16:51:48;8.03;;;3.70;;
6113;SDS011;3087;48.392;10.836;2023-02-01T16:54:17;5.50;;;3.30;;
6113;SDS011;3087;48.392;10.836;2023-02-01T16:56:49;10.23;;;3.60;;
6113;SDS011;3087;48.392;10.836;2023-02-01T16:59:14;6.03;;;3.47;;
6113;SDS011;3087;48.392;10.836;2023-02-01T17:01:40;9.87;;;4.33;;
6113;SDS011;3087;48.392;10.836;2023-02-01T17:04:07;7.77;;;3.60;;
6113;SDS011;3087;48.392;10.836;2023-02-01T17:06:34;7.93;;;3.77;;
6113;SDS011;3087;48.392;10.836;2023-02-01T17:09:02;7.83;;;3.63;;
6113;SDS011;3087;48.392;10.836;2023-02-01T17:11:29;5.63;;;3.40;;
6113;SDS011;3087;48.392;10.836;2023-02-01T17:13:56;6.70;;;3.83;;
6113;SDS011;3087;48.392;10.836;2023-02-01T17:16:28;9.43;;;3.87;;
6113;SDS011;3087;48.392;10.836;2023-02-01T17:18:57;9.63;;;4.63;;
6113;SDS011;3087;48.392;10.836;2023-02-01T17:24:01;6.93;;;3.40;;
6113;SDS011;3087;48.392;10.836;2023-02-01T17:26:27;6.53;;;3.77;;
6113;SDS011;3087;48.392;10.836;2023-02-01T17:28:53;9.90;;;3.80;;
6113;SDS011;3087;48.392;10.836;2023-02-01T17:31:18;7.67;;;3.83;;
6113;SDS011;3087;48.392;10.836;2023-02-01T17:33:44;7.57;;;3.57;;
6113;SDS011;3087;48.392;10.836;2023-02-01T17:36:11;9.97;;;3.93;;
6113;SDS011;3087;48.392;10.836;2023-02-01T17:38:40;9.57;;;4.13;;
6113;SDS011;3087;48.392;10.836;2023-02-01T17:41:12;6.37;;;3.97;;
6113;SDS011;3087;48.392;10.836;2023-02-01T17:43:38;8.10;;;3.67;;
6113;SDS011;3087;48.392;10.836;2023-02-01T17:46:06;6.30;;;3.70;;
6113;SDS011;3087;48.392;10.836;2023-02-01T17:48:39;8.90;;;4.60;;
6113;SDS011;3087;48.392;10.836;2023-02-01T17:51:10;10.77;;;3.93;;
6113;SDS011;3087;48.392;10.836;2023-02-01T17:53:43;7.27;;;3.77;;
6113;SDS011;3087;48.392;10.836;2023-02-01T17:56:13;10.77;;;5.00;;
6113;SDS011;3087;48.392;10.836;2023-02-01T17:58:41;8.53;;;3.77;;
6113;SDS011;3087;48.392;10.836;2023-02-01T18:01:10;10.63;;;4.03;;
6113;SDS011;3087;48.392;10.836;2023-02-01T18:03:37;8.00;;;3.50;;
6113;SDS011;3087;48.392;10.836;2023-02-01T18:06:03;8.67;;;3.83;;
6113;SDS011;3087;48.392;10.836;2023-02-01T18:08:30;10.33;;;4.00;;
6113;SDS011;3087;48.392;10.836;2023-02-01T18:10:59;8.63;;;3.97;;
6113;SDS011;3087;48.392;10.836;2023-02-01T18:13:26;7.33;;;3.87;;